Time;durP1;ratioP1;P1;durP2;ratioP2;P2;SDS_P1;SDS_P2;PMS_P1;PMS_P2;Temp;Humidity;BMP_temperature;BMP_pressure;BME280_temperature;BME280_humidity;BME280_pressure;Samples;Min_cycle;Max_cycle;Signal;HPM_P1;HPM_P2
2022/10/17 00:00:27;;;;;;;30.30;17.60;;;;;;;14.75;81.88;101527.77;107462;1241;97726;-68
2022/10/17 00:02:54;;;;;;;35.20;18.00;;;;;;;14.69;81.75;101525.39;107216;1238;139202;-69
2022/10/17 00:05:20;;;;;;;33.00;17.70;;;;;;;14.64;81.99;101525.42;107204;1237;97725;-68
2022/10/17 00:07:45;;;;;;;31.40;18.00;;;;;;;14.64;82.02;101524.38;107137;1249;97675;-68
2022/10/17 00:10:10;;;;;;;33.80;17.10;;;;;;;14.65;82.13;101527.21;107271;1261;96420;-68
2022/10/17 00:12:35;;;;;;;31.80;18.10;;;;;;;14.66;82.09;101541.35;107176;1256;97600;-68
2022/10/17 00:15:04;;;;;;;25.60;17.10;;;;;;;14.66;82.15;101549.09;107214;1242;139831;-68
2022/10/17 00:17:29;;;;;;;30.80;17.00;;;;;;;14.64;82.11;101554.92;107351;1254;100047;-68
2022/10/17 00:19:54;;;;;;;30.20;18.10;;;;;;;14.60;82.07;101552.58;107204;1242;139424;-68
2022/10/17 00:22:19;;;;;;;34.20;19.30;;;;;;;14.57;82.24;101543.73;107207;1249;98060;-68
2022/10/17 00:24:45;;;;;;;35.50;18.10;;;;;;;14.58;82.31;101540.63;107182;1252;96476;-68
2022/10/17 00:27:10;;;;;;;27.30;17.50;;;;;;;14.59;82.32;101547.26;107184;1243;139795;-68
2022/10/17 00:29:35;;;;;;;28.90;17.10;;;;;;;14.59;82.34;101551.92;107348;1245;97818;-69
2022/10/17 00:32:00;;;;;;;28.60;16.40;;;;;;;14.60;82.59;101552.20;107305;1242;138939;-68
2022/10/17 00:34:28;;;;;;;32.60;18.00;;;;;;;14.64;82.52;101549.38;107304;1250;97805;-68
2022/10/17 00:36:53;;;;;;;29.70;16.90;;;;;;;14.65;82.61;101547.86;107386;1244;99276;-69
2022/10/17 00:39:19;;;;;;;28.90;17.10;;;;;;;14.68;82.68;101540.36;107239;1250;138415;-68
2022/10/17 00:41:44;;;;;;;28.30;17.50;;;;;;;14.69;82.64;101529.33;107413;1248;97592;-68
2022/10/17 00:44:28;;;;;;;28.40;17.10;;;;;;;14.69;82.71;101529.88;107199;1251;140212;-68
2022/10/17 00:46:54;;;;;;;30.00;17.10;;;;;;;14.69;82.71;101534.04;107368;1251;107534;-68
2022/10/17 00:49:23;;;;;;;29.30;16.60;;;;;;;14.67;82.62;101536.46;107307;1250;97806;-68
2022/10/17 00:51:52;;;;;;;34.60;17.00;;;;;;;14.65;82.75;101537.09;107081;1244;138648;-68
2022/10/17 00:54:21;;;;;;;33.20;17.70;;;;;;;14.65;82.78;101547.70;107156;1254;111065;-68
2022/10/17 00:56:48;;;;;;;30.50;17.30;;;;;;;14.63;82.78;101543.09;106970;1255;139990;-68
2022/10/17 00:59:17;;;;;;;27.10;16.90;;;;;;;14.59;82.69;101532.29;107172;1247;97529;-69
2022/10/17 01:01:52;;;;;;;30.30;17.10;;;;;;;14.60;82.92;101525.25;107191;1240;97728;-68
2022/10/17 01:04:18;;;;;;;32.80;18.20;;;;;;;14.60;82.83;101530.48;107165;1243;97700;-68
2022/10/17 01:06:43;;;;;;;28.60;17.30;;;;;;;14.57;82.79;101536.34;107172;1244;98205;-67
2022/10/17 01:09:08;;;;;;;25.30;16.20;;;;;;;14.56;82.82;101543.80;107252;1255;138835;-68
2022/10/17 01:11:42;;;;;;;25.80;16.70;;;;;;;14.55;83.04;101537.15;107331;1256;96851;-68
2022/10/17 01:14:27;;;;;;;24.00;16.00;;;;;;;14.56;83.00;101531.38;107251;1236;139491;-68
2022/10/17 01:17:04;;;;;;;25.30;16.70;;;;;;;14.56;82.98;101538.92;107238;1249;112038;-68
2022/10/17 01:19:48;;;;;;;24.80;15.80;;;;;;;14.55;82.94;101551.02;107189;1238;99449;-68
2022/10/17 01:22:24;;;;;;;28.90;16.60;;;;;;;14.52;83.01;101558.00;107352;1238;106602;-68
2022/10/17 01:25:33;;;;;;;28.80;16.90;;;;;;;14.52;83.08;101560.16;107285;1254;97609;-69
2022/10/17 01:28:13;;;;;;;27.70;17.40;;;;;;;14.45;82.94;101562.61;107021;1248;138548;-68
2022/10/17 01:31:03;;;;;;;30.00;17.80;;;;;;;14.43;83.09;101567.02;107293;1243;110654;-68
2022/10/17 01:33:50;;;;;;;23.90;15.60;;;;;;;14.46;83.24;101575.88;107141;1251;139000;-68
2022/10/17 01:36:34;;;;;;;25.10;15.40;;;;;;;14.46;83.18;101573.20;107177;1245;107312;-66
2022/10/17 01:39:14;;;;;;;25.50;16.80;;;;;;;14.47;83.37;101570.27;107181;1257;138557;-67
2022/10/17 01:41:56;;;;;;;27.40;16.30;;;;;;;14.50;83.33;101568.70;107381;1248;98811;-67
2022/10/17 01:44:28;;;;;;;;;;;;;;;14.49;83.35;101562.45;107256;1245;138742;-66
2022/10/17 01:47:00;;;;;;;27.90;15.90;;;;;;;14.49;83.48;101556.17;107330;1241;98506;-67
2022/10/17 01:49:30;;;;;;;25.20;15.90;;;;;;;14.49;83.48;101554.02;107294;1250;107884;-67
2022/10/17 01:52:10;;;;;;;27.70;15.80;;;;;;;14.50;83.57;101551.63;107118;1244;138709;-67
2022/10/17 01:54:41;;;;;;;30.70;15.80;;;;;;;14.50;83.44;101544.24;107229;1254;97667;-66
2022/10/17 01:57:15;;;;;;;27.90;16.70;;;;;;;14.47;83.42;101531.61;107230;1244;138617;-66
2022/10/17 01:59:44;;;;;;;27.20;16.30;;;;;;;14.45;83.53;101533.30;107408;1248;99443;-66
2022/10/17 02:02:13;;;;;;;27.10;16.10;;;;;;;14.45;83.64;101532.61;107271;1242;138986;-66
2022/10/17 02:04:40;;;;;;;30.30;16.20;;;;;;;14.44;83.60;101535.52;107368;1235;98033;-66
2022/10/17 02:07:07;;;;;;;25.20;16.40;;;;;;;14.43;83.60;101547.06;107295;1245;98043;-66
2022/10/17 02:09:32;;;;;;;27.60;16.10;;;;;;;14.43;83.66;101549.96;107333;1251;138458;-67
2022/10/17 02:12:19;;;;;;;27.30;17.00;;;;;;;14.41;83.74;101549.48;107369;1236;97925;-66
2022/10/17 02:15:05;;;;;;;27.50;15.90;;;;;;;14.41;83.77;101553.77;107202;1233;139191;-66
2022/10/17 02:17:52;;;;;;;25.80;16.20;;;;;;;14.40;83.76;101550.23;107283;1238;96483;-66
2022/10/17 02:20:27;;;;;;;30.30;16.30;;;;;;;14.41;83.84;101555.77;107139;1257;139411;-66
2022/10/17 02:23:15;;;;;;;31.30;15.30;;;;;;;14.43;84.01;101562.70;107352;1236;99206;-66
2022/10/17 02:25:57;;;;;;;28.80;16.80;;;;;;;14.43;83.79;101560.18;107378;1235;107716;-67
2022/10/17 02:28:46;;;;;;;27.90;16.30;;;;;;;14.43;83.94;101564.52;107290;1243;97871;-67
2022/10/17 02:31:27;;;;;;;27.90;16.90;;;;;;;14.44;83.88;101568.42;107326;1241;97888;-67
2022/10/17 02:34:01;;;;;;;23.60;15.80;;;;;;;14.43;84.00;101564.15;107273;1245;139192;-67
2022/10/17 02:36:34;;;;;;;27.60;16.30;;;;;;;14.44;83.97;101568.96;107342;1248;100035;-67
2022/10/17 02:39:01;;;;;;;30.60;16.80;;;;;;;14.44;84.03;101572.91;107251;1244;140246;-67
2022/10/17 02:41:30;;;;;;;26.20;16.20;;;;;;;14.46;84.12;101572.13;107368;1237;99217;-67
2022/10/17 02:43:55;;;;;;;30.90;16.70;;;;;;;14.45;84.00;101566.75;107257;1233;138687;-67
2022/10/17 02:46:23;;;;;;;27.00;16.30;;;;;;;14.46;84.19;101564.55;107444;1246;97737;-67
2022/10/17 02:48:58;;;;;;;28.20;16.50;;;;;;;14.48;84.21;101570.92;107417;1247;97616;-67
2022/10/17 02:51:44;;;;;;;31.40;17.40;;;;;;;14.50;84.29;101578.77;107167;1251;139981;-67
2022/10/17 02:54:33;;;;;;;28.90;17.00;;;;;;;14.49;84.18;101576.48;107125;1253;97832;-67
2022/10/17 02:57:07;;;;;;;30.70;18.00;;;;;;;14.45;84.14;101575.92;107282;1243;139215;-67
2022/10/17 02:59:35;;;;;;;25.80;17.20;;;;;;;14.44;84.24;101571.67;107415;1235;111628;-67
2022/10/17 03:02:05;;;;;;;37.60;18.90;;;;;;;14.44;84.24;101571.98;107234;1251;139679;-67
2022/10/17 03:04:31;;;;;;;32.10;18.80;;;;;;;14.44;84.20;101575.09;107407;1241;107444;-67
2022/10/17 03:06:56;;;;;;;31.10;19.20;;;;;;;14.43;84.34;101580.16;107335;1243;97703;-67
2022/10/17 03:09:21;;;;;;;38.40;20.30;;;;;;;14.40;84.25;101584.77;107238;1243;139761;-67
2022/10/17 03:11:47;;;;;;;36.80;20.70;;;;;;;14.39;84.37;101584.98;107131;1244;98184;-67
2022/10/17 03:14:13;;;;;;;32.00;21.70;;;;;;;14.38;84.31;101578.17;107055;1251;139315;-67
2022/10/17 03:16:38;;;;;;;33.10;22.20;;;;;;;14.35;84.19;101571.87;107426;1252;97659;-67
2022/10/17 03:19:03;;;;;;;33.20;21.70;;;;;;;14.27;84.16;101569.14;107367;1243;97733;-67
2022/10/17 03:21:29;;;;;;;34.20;21.50;;;;;;;14.24;84.27;101577.02;107175;1247;139546;-67
2022/10/17 03:23:54;;;;;;;32.90;19.20;;;;;;;14.22;84.32;101577.61;107149;1253;97786;-67
2022/10/17 03:26:19;;;;;;;32.20;19.50;;;;;;;14.21;84.31;101577.33;107069;1255;138641;-67
2022/10/17 03:28:45;;;;;;;35.60;20.60;;;;;;;14.19;84.44;101580.66;107448;1264;97711;-67
2022/10/17 03:31:14;;;;;;;31.70;18.30;;;;;;;14.17;84.46;101583.42;107348;1249;99086;-67
2022/10/17 03:33:39;;;;;;;31.50;20.90;;;;;;;14.13;84.35;101579.80;107170;1238;139052;-67
2022/10/17 03:36:14;;;;;;;30.90;20.30;;;;;;;14.09;84.39;101586.48;107205;1257;97621;-67
2022/10/17 03:38:40;;;;;;;31.50;17.50;;;;;;;14.08;84.51;101589.06;107112;1235;138975;-67
2022/10/17 03:41:05;;;;;;;29.90;18.80;;;;;;;14.06;84.58;101589.13;107200;1250;97810;-67
2022/10/17 03:43:31;;;;;;;29.40;18.30;;;;;;;14.06;84.55;101592.56;107214;1252;97628;-67
2022/10/17 03:45:58;;;;;;;29.40;18.50;;;;;;;14.05;84.53;101592.61;107216;1256;138665;-67
2022/10/17 03:48:24;;;;;;;35.20;20.00;;;;;;;14.01;84.48;101597.79;107338;1251;97635;-67
2022/10/17 03:50:50;;;;;;;28.40;18.70;;;;;;;13.96;84.53;101600.67;107246;1248;138916;-67
2022/10/17 03:53:15;;;;;;;30.50;18.40;;;;;;;13.91;84.54;101598.17;107376;1244;97607;-67
2022/10/17 03:55:41;;;;;;;26.20;17.40;;;;;;;13.90;84.66;101596.99;107372;1248;97983;-67
2022/10/17 03:58:07;;;;;;;29.90;18.40;;;;;;;13.87;84.70;101597.27;107047;1253;138953;-67
2022/10/17 04:00:34;;;;;;;32.80;18.80;;;;;;;13.86;84.67;101599.50;107263;1251;97805;-67
2022/10/17 04:02:59;;;;;;;36.50;18.40;;;;;;;13.83;84.79;101599.78;107057;1256;138841;-67
2022/10/17 04:05:25;;;;;;;33.40;19.40;;;;;;;13.81;84.76;101598.27;107219;1248;97754;-67
2022/10/17 04:07:50;;;;;;;31.00;18.50;;;;;;;13.80;84.84;101598.83;107308;1235;138918;-70
2022/10/17 04:10:15;;;;;;;32.50;18.70;;;;;;;13.79;84.86;101599.41;107209;1247;97809;-67
2022/10/17 04:12:41;;;;;;;27.70;17.80;;;;;;;13.78;84.94;101594.45;107250;1246;96357;-67
2022/10/17 04:15:06;;;;;;;28.70;18.20;;;;;;;13.77;84.96;101594.13;107207;1247;139180;-67
2022/10/17 04:17:32;;;;;;;30.00;19.00;;;;;;;13.74;84.97;101584.55;107383;1248;97698;-67
2022/10/17 04:19:57;;;;;;;30.70;18.10;;;;;;;13.73;84.98;101581.90;107267;1251;139499;-67
2022/10/17 04:22:23;;;;;;;29.60;18.60;;;;;;;13.71;85.07;101583.04;107086;1250;98938;-67
2022/10/17 04:24:49;;;;;;;31.80;18.40;;;;;;;13.69;85.03;101587.97;107251;1239;97720;-67
2022/10/17 04:27:14;;;;;;;27.40;17.40;;;;;;;13.68;85.07;101591.97;107109;1245;139368;-67
2022/10/17 04:29:40;;;;;;;31.40;18.60;;;;;;;13.66;85.16;101592.96;107356;1245;98525;-67
2022/10/17 04:32:05;;;;;;;31.50;18.20;;;;;;;13.63;85.26;101596.48;107295;1250;139343;-66
2022/10/17 04:34:31;;;;;;;34.80;18.60;;;;;;;13.61;85.19;101597.11;107236;1242;97874;-67
2022/10/17 04:36:56;;;;;;;30.60;18.70;;;;;;;13.57;85.18;101603.02;107318;1255;97665;-67
2022/10/17 04:39:21;;;;;;;32.70;21.00;;;;;;;13.53;85.21;101603.16;107198;1238;138789;-67
2022/10/17 04:41:46;;;;;;;37.50;19.10;;;;;;;13.51;85.30;101610.63;107410;1248;97725;-67
2022/10/17 04:44:12;;;;;;;31.80;20.20;;;;;;;13.49;85.33;101611.43;107214;1248;139227;-67
2022/10/17 04:46:38;;;;;;;32.80;19.20;;;;;;;13.46;85.41;101611.73;107178;1254;97747;-67
2022/10/17 04:49:03;;;;;;;27.30;19.40;;;;;;;13.43;85.49;101608.09;107264;1238;97666;-67
2022/10/17 04:51:28;;;;;;;34.50;22.10;;;;;;;13.42;85.56;101606.70;107177;1248;139581;-67
2022/10/17 04:53:53;;;;;;;39.30;21.20;;;;;;;13.41;85.60;101610.66;107342;1235;97755;-67
2022/10/17 04:56:21;;;;;;;32.60;18.90;;;;;;;13.41;85.71;101613.89;107190;1243;139754;-66
2022/10/17 04:58:47;;;;;;;33.10;20.80;;;;;;;13.42;85.73;101616.92;107342;1244;111133;-67
2022/10/17 05:01:16;;;;;;;39.90;20.70;;;;;;;13.42;85.82;101620.85;107339;1249;96601;-66
2022/10/17 05:03:41;;;;;;;29.20;19.50;;;;;;;13.41;85.78;101620.73;107113;1243;140412;-67
2022/10/17 05:06:18;;;;;;;34.20;20.30;;;;;;;13.39;85.76;101618.11;107161;1251;97676;-67
2022/10/17 05:08:44;;;;;;;32.50;19.90;;;;;;;13.38;85.82;101616.02;107084;1255;139835;-67
2022/10/17 05:11:19;;;;;;;36.30;20.30;;;;;;;13.34;85.81;101615.96;107327;1251;97605;-67
2022/10/17 05:13:50;;;;;;;30.00;19.40;;;;;;;13.30;85.81;101617.04;107329;1243;107496;-67
2022/10/17 05:16:15;;;;;;;31.90;19.30;;;;;;;13.27;85.79;101614.98;107299;1257;97809;-66
2022/10/17 05:18:41;;;;;;;35.10;20.00;;;;;;;13.24;85.88;101615.48;107342;1251;97637;-67
2022/10/17 05:21:06;;;;;;;30.10;19.30;;;;;;;13.22;86.06;101615.53;107220;1242;139807;-67
2022/10/17 05:23:31;;;;;;;34.10;20.60;;;;;;;13.22;86.03;101613.41;107216;1248;97777;-67
2022/10/17 05:25:56;;;;;;;43.80;21.90;;;;;;;13.19;86.02;101616.02;107169;1236;139432;-68
2022/10/17 05:28:22;;;;;;;37.30;22.00;;;;;;;13.19;86.10;101618.55;107316;1244;97728;-67
2022/10/17 05:30:48;;;;;;;44.60;22.40;;;;;;;13.16;86.18;101618.64;107354;1241;97625;-67
2022/10/17 05:33:14;;;;;;;34.80;20.60;;;;;;;13.15;86.25;101622.27;107168;1251;139687;-67
2022/10/17 05:35:39;;;;;;;35.60;20.90;;;;;;;13.14;86.19;101626.24;107162;1254;97698;-67
2022/10/17 05:38:04;;;;;;;34.70;20.30;;;;;;;13.13;86.28;101626.81;107134;1236;139196;-67
2022/10/17 05:40:29;;;;;;;44.40;21.40;;;;;;;13.12;86.32;101629.71;107465;1239;97629;-67
2022/10/17 05:42:55;;;;;;;37.00;22.60;;;;;;;13.12;86.47;101630.77;107391;1248;97614;-67
2022/10/17 05:45:20;;;;;;;41.20;22.30;;;;;;;13.14;86.49;101634.66;107359;1251;138809;-67
2022/10/17 05:47:45;;;;;;;37.90;21.40;;;;;;;13.15;86.50;101635.19;107441;1238;97735;-68
2022/10/17 05:50:11;;;;;;;37.90;21.90;;;;;;;13.14;86.53;101636.45;107308;1245;139400;-67
2022/10/17 05:52:36;;;;;;;37.90;22.00;;;;;;;13.15;86.65;101639.12;107450;1243;98304;-67
2022/10/17 05:55:03;;;;;;;40.80;22.10;;;;;;;13.17;86.74;101644.09;107411;1245;97815;-67
2022/10/17 05:57:28;;;;;;;42.00;21.00;;;;;;;13.18;86.71;101648.89;107333;1237;139085;-68
2022/10/17 05:59:53;;;;;;;34.40;21.30;;;;;;;13.19;86.66;101654.61;107228;1246;98079;-67
2022/10/17 06:02:18;;;;;;;38.70;21.70;;;;;;;13.19;86.75;101654.06;107162;1237;138848;-68
2022/10/17 06:04:48;;;;;;;43.80;22.40;;;;;;;13.20;86.81;101659.77;107507;1246;98595;-67
2022/10/17 06:07:14;;;;;;;35.40;21.10;;;;;;;13.22;86.96;101660.25;107378;1251;107423;-66
2022/10/17 06:09:39;;;;;;;40.10;22.80;;;;;;;13.24;86.95;101661.05;107239;1251;138949;-66
2022/10/17 06:12:05;;;;;;;38.00;21.80;;;;;;;13.27;87.05;101661.84;107377;1238;98865;-67
2022/10/17 06:14:30;;;;;;;34.70;21.80;;;;;;;13.30;87.14;101665.67;108748;1245;138942;-67
2022/10/17 06:16:56;;;;;;;42.00;22.30;;;;;;;13.33;87.23;101669.15;108868;1244;97420;-68
2022/10/17 06:19:21;;;;;;;38.60;22.00;;;;;;;13.38;87.36;101672.19;108919;1243;96529;-67
2022/10/17 06:21:46;;;;;;;42.20;24.10;;;;;;;13.41;87.20;101670.27;108653;1246;138649;-66
2022/10/17 06:24:12;;;;;;;38.10;22.60;;;;;;;13.44;87.34;101670.16;108222;1252;97846;-66
2022/10/17 06:26:37;;;;;;;37.70;22.60;;;;;;;13.48;87.41;101673.23;107025;1246;139113;-65
2022/10/17 06:29:02;;;;;;;40.90;22.50;;;;;;;13.51;87.39;101676.88;107176;1258;97612;-65
2022/10/17 06:31:28;;;;;;;45.30;25.10;;;;;;;13.53;87.44;101678.25;107251;1238;97671;-66
2022/10/17 06:33:53;;;;;;;39.80;22.20;;;;;;;13.55;87.43;101677.64;107194;1243;138635;-66
2022/10/17 06:36:18;;;;;;;42.10;23.80;;;;;;;13.56;87.47;101681.35;107413;1237;97616;-66
2022/10/17 06:38:44;;;;;;;44.60;25.90;;;;;;;13.58;87.54;101682.89;107164;1244;138662;-66
2022/10/17 06:41:13;;;;;;;40.40;24.00;;;;;;;13.60;87.46;101686.98;107166;1237;97758;-66
2022/10/17 06:43:42;;;;;;;37.80;23.10;;;;;;;13.60;87.50;101688.39;107190;1244;97656;-66
2022/10/17 06:46:07;;;;;;;44.40;23.80;;;;;;;13.60;87.50;101693.23;107195;1251;139067;-66
2022/10/17 06:48:33;;;;;;;39.70;21.80;;;;;;;13.60;87.59;101692.49;107332;1244;97772;-67
2022/10/17 06:50:59;;;;;;;40.20;22.60;;;;;;;13.62;87.60;101692.63;107343;1251;138687;-66
2022/10/17 06:53:27;;;;;;;39.50;21.90;;;;;;;13.65;87.55;101693.38;107276;1235;107430;-66
2022/10/17 06:55:54;;;;;;;36.80;23.80;;;;;;;13.66;87.64;101694.60;107228;1237;140506;-67
2022/10/17 06:58:19;;;;;;;34.00;21.80;;;;;;;13.71;87.64;101691.91;107094;1246;97688;-66
2022/10/17 07:00:44;;;;;;;40.80;23.50;;;;;;;13.75;87.73;101694.98;107304;1243;97732;-66
2022/10/17 07:03:10;;;;;;;36.00;23.20;;;;;;;13.78;87.71;101700.61;107182;1236;139274;-66
2022/10/17 07:05:36;;;;;;;39.80;24.10;;;;;;;13.81;87.74;101702.83;107338;1251;97737;-66
2022/10/17 07:08:03;;;;;;;43.40;24.10;;;;;;;13.81;87.56;101703.89;107325;1247;140034;-66
2022/10/17 07:10:29;;;;;;;39.30;23.70;;;;;;;13.83;87.63;101702.21;107148;1236;101752;-66
2022/10/17 07:12:54;;;;;;;39.70;23.90;;;;;;;13.85;87.74;101701.23;107116;1242;97770;-66
2022/10/17 07:15:19;;;;;;;50.40;24.90;;;;;;;13.89;87.71;101703.03;107199;1235;138787;-66
2022/10/17 07:17:51;;;;;;;39.50;24.70;;;;;;;13.92;87.81;101698.58;107382;1243;97779;-66
2022/10/17 07:20:17;;;;;;;42.50;25.70;;;;;;;13.95;87.79;101704.74;107187;1230;138883;-66
2022/10/17 07:22:43;;;;;;;44.20;26.30;;;;;;;13.99;87.82;101707.85;107164;1239;98132;-66
2022/10/17 07:25:08;;;;;;;42.20;26.00;;;;;;;14.03;87.76;101706.42;107168;1246;97872;-66
2022/10/17 07:27:34;;;;;;;44.70;27.10;;;;;;;14.09;87.85;101706.92;107061;1244;138993;-67
2022/10/17 07:29:59;;;;;;;43.80;27.00;;;;;;;14.15;87.88;101707.39;107133;1244;97720;-65
2022/10/17 07:32:24;;;;;;;42.30;26.80;;;;;;;14.20;87.87;101708.79;107090;1235;138896;-65
2022/10/17 07:34:49;;;;;;;41.20;25.40;;;;;;;14.26;88.00;101706.00;107348;1244;97641;-65
2022/10/17 07:37:15;;;;;;;50.90;25.90;;;;;;;14.34;88.08;101702.27;107413;1235;97771;-65
2022/10/17 07:39:40;;;;;;;44.60;26.50;;;;;;;14.41;88.08;101703.05;107256;1251;138983;-65
2022/10/17 07:42:06;;;;;;;48.20;27.50;;;;;;;14.47;88.03;101699.58;107452;1238;97707;-66
2022/10/17 07:44:32;;;;;;;45.30;27.00;;;;;;;14.53;87.94;101694.45;107258;1244;139305;-66
2022/10/17 07:46:58;;;;;;;41.30;24.40;;;;;;;14.59;88.04;101693.27;107325;1238;97794;-66
2022/10/17 07:49:23;;;;;;;43.30;27.50;;;;;;;14.66;87.99;101691.73;107367;1235;97653;-65
2022/10/17 07:51:49;;;;;;;44.70;26.50;;;;;;;14.72;88.06;101691.83;107220;1251;138688;-66
2022/10/17 07:54:14;;;;;;;50.30;28.20;;;;;;;14.76;87.94;101694.34;107302;1244;99622;-66
2022/10/17 07:56:39;;;;;;;48.20;28.10;;;;;;;14.80;87.84;101689.14;107302;1235;138752;-67
2022/10/17 07:59:05;;;;;;;43.10;27.20;;;;;;;14.85;87.97;101687.49;107302;1244;98213;-67
2022/10/17 08:01:30;;;;;;;49.80;28.40;;;;;;;14.91;87.90;101688.13;107418;1244;97586;-67
2022/10/17 08:03:55;;;;;;;57.90;29.70;;;;;;;14.98;88.00;101689.42;107150;1227;138784;-66
2022/10/17 08:06:20;;;;;;;43.10;27.20;;;;;;;15.04;87.96;101688.05;107117;1246;97760;-65
2022/10/17 08:08:46;;;;;;;46.00;26.50;;;;;;;15.10;87.89;101689.61;107239;1252;138880;-66
2022/10/17 08:11:13;;;;;;;53.90;30.20;;;;;;;15.14;87.81;101686.36;107375;1259;97700;-65
2022/10/17 08:13:39;;;;;;;50.00;28.50;;;;;;;15.20;87.96;101688.02;107417;1235;97789;-66
2022/10/17 08:16:08;;;;;;;49.70;28.30;;;;;;;15.28;87.90;101690.40;107281;1244;138957;-64
2022/10/17 08:18:34;;;;;;;52.50;30.70;;;;;;;15.35;87.75;101690.61;107348;1238;97931;-65
2022/10/17 08:21:05;;;;;;;57.20;29.30;;;;;;;15.42;87.86;101690.45;107211;1244;139261;-65
2022/10/17 08:23:31;;;;;;;46.00;28.40;;;;;;;15.50;87.73;101691.15;107383;1231;99334;-64
2022/10/17 08:26:01;;;;;;;51.30;28.30;;;;;;;15.59;87.78;101693.07;107030;1245;139247;-64
2022/10/17 08:28:27;;;;;;;58.30;30.50;;;;;;;15.67;87.78;101690.70;107359;1241;99078;-65
2022/10/17 08:30:53;;;;;;;45.20;27.10;;;;;;;15.76;87.78;101693.52;107363;1251;97709;-66
2022/10/17 08:33:18;;;;;;;49.20;28.00;;;;;;;15.83;87.69;101690.98;107320;1244;139675;-66
2022/10/17 08:35:43;;;;;;;53.70;27.80;;;;;;;15.91;87.59;101692.23;107260;1251;97777;-66
2022/10/17 08:38:08;;;;;;;41.20;26.80;;;;;;;15.98;87.71;101686.13;107287;1243;138695;-66
2022/10/17 08:40:34;;;;;;;45.80;28.60;;;;;;;16.09;87.62;101685.39;107076;1238;111093;-66
2022/10/17 08:43:05;;;;;;;44.60;27.40;;;;;;;16.19;87.53;101682.35;107181;1260;97725;-67
2022/10/17 08:45:38;;;;;;;44.80;25.80;;;;;;;16.29;87.46;101677.69;107210;1236;138533;-67
2022/10/17 08:48:08;;;;;;;44.90;28.20;;;;;;;16.40;87.39;101677.14;107324;1244;97781;-67
2022/10/17 08:50:39;;;;;;;46.50;27.30;;;;;;;16.51;87.31;101674.79;107240;1236;139212;-67
2022/10/17 08:53:19;;;;;;;54.00;27.90;;;;;;;16.63;87.40;101671.80;107138;1253;104450;-66
2022/10/17 08:55:47;;;;;;;41.60;26.70;;;;;;;16.75;87.34;101670.65;107168;1236;97626;-67
2022/10/17 08:58:16;;;;;;;43.30;26.40;;;;;;;16.88;87.44;101670.48;107211;1235;138525;-67
2022/10/17 09:00:52;;;;;;;44.10;25.00;;;;;;;17.01;87.26;101672.49;107382;1244;97729;-70
2022/10/17 09:03:37;;;;;;;43.10;25.50;;;;;;;17.13;87.03;101671.46;107232;1237;138972;-67
2022/10/17 09:06:11;;;;;;;40.20;25.10;;;;;;;17.27;87.09;101672.02;107417;1244;102634;-68
2022/10/17 09:09:02;;;;;;;39.20;24.30;;;;;;;17.37;86.89;101669.62;107196;1236;138893;-67
2022/10/17 09:11:49;;;;;;;47.30;26.10;;;;;;;17.48;86.82;101669.01;107112;1246;98899;-66
2022/10/17 09:14:35;;;;;;;44.30;23.90;;;;;;;17.60;86.78;101670.89;107091;1243;141228;-66
2022/10/17 09:17:13;;;;;;;41.50;22.90;;;;;;;17.71;86.57;101672.25;107437;1235;97668;-65
2022/10/17 09:20:18;;;;;;;39.70;22.60;;;;;;;17.84;86.41;101675.51;107373;1243;102447;-66
2022/10/17 09:23:01;;;;;;;39.30;22.70;;;;;;;17.96;86.18;101676.82;107320;1251;99324;-65
2022/10/17 09:25:27;;;;;;;35.90;21.30;;;;;;;18.06;86.14;101677.48;107290;1238;97782;-65
2022/10/17 09:28:03;;;;;;;32.10;20.90;;;;;;;18.17;85.98;101674.65;107135;1247;139850;-65
2022/10/17 09:30:43;;;;;;;33.00;21.50;;;;;;;18.29;85.93;101672.64;107182;1244;97786;-67
2022/10/17 09:33:11;;;;;;;35.10;21.70;;;;;;;18.41;85.60;101667.77;107177;1230;139270;-66
2022/10/17 09:35:38;;;;;;;29.30;19.70;;;;;;;18.52;85.40;101665.48;107373;1238;97622;-67
2022/10/17 09:38:03;;;;;;;30.90;20.50;;;;;;;18.65;85.36;101666.15;107239;1245;141894;-66
2022/10/17 09:40:33;;;;;;;33.30;19.60;;;;;;;18.79;85.14;101655.17;107439;1236;97833;-67
2022/10/17 09:43:03;;;;;;;31.50;19.40;;;;;;;18.90;84.78;101653.93;107322;1228;111251;-65
2022/10/17 09:45:37;;;;;;;27.70;17.10;;;;;;;19.00;84.70;101655.11;107155;1237;139948;-67
2022/10/17 09:48:15;;;;;;;28.90;17.80;;;;;;;19.13;84.65;101653.96;107196;1247;98830;-66
2022/10/17 09:50:41;;;;;;;28.40;17.80;;;;;;;19.26;84.26;101654.92;107104;1251;138805;-67
2022/10/17 09:53:25;;;;;;;28.60;19.40;;;;;;;19.37;84.06;101654.39;107395;1244;96721;-66
2022/10/17 09:55:56;;;;;;;27.20;18.50;;;;;;;19.50;83.82;101656.65;107319;1251;102435;-67
2022/10/17 09:58:22;;;;;;;29.20;17.00;;;;;;;19.60;83.47;101659.14;107250;1246;98909;-66
2022/10/17 10:00:48;;;;;;;23.60;16.40;;;;;;;19.68;83.21;101660.18;107183;1253;97761;-66
2022/10/17 10:03:22;;;;;;;30.10;18.30;;;;;;;19.75;82.97;101652.83;107218;1245;139232;-67
2022/10/17 10:06:05;;;;;;;30.10;18.20;;;;;;;19.85;82.56;101660.54;107362;1243;102398;-66
2022/10/17 10:08:34;;;;;;;28.10;16.10;;;;;;;19.94;82.29;101659.40;107248;1235;139782;-66
2022/10/17 10:11:06;;;;;;;27.20;16.30;;;;;;;20.02;82.03;101662.64;107423;1244;99365;-67
2022/10/17 10:13:34;;;;;;;24.20;14.30;;;;;;;20.11;81.73;101662.42;107386;1244;98696;-66
2022/10/17 10:16:18;;;;;;;27.20;16.30;;;;;;;20.19;81.30;101659.00;107247;1244;138862;-67
2022/10/17 10:18:44;;;;;;;21.30;14.10;;;;;;;20.29;81.17;101661.75;107351;1251;102517;-67
2022/10/17 10:21:15;;;;;;;23.50;16.20;;;;;;;20.37;80.73;101658.67;107278;1234;138774;-67
2022/10/17 10:24:05;;;;;;;23.70;15.00;;;;;;;20.47;80.48;101658.34;107342;1230;98950;-66
2022/10/17 10:26:40;;;;;;;23.00;15.40;;;;;;;20.59;80.15;101657.39;107223;1253;140507;-66
2022/10/17 10:29:23;;;;;;;22.40;14.40;;;;;;;20.67;79.79;101656.25;107353;1251;97684;-66
2022/10/17 10:31:49;;;;;;;22.10;16.00;;;;;;;20.75;79.42;101650.94;107360;1235;102419;-67
2022/10/17 10:34:20;;;;;;;24.80;15.10;;;;;;;20.84;79.16;101651.07;107298;1250;140471;-67
2022/10/17 10:36:54;;;;;;;26.00;14.60;;;;;;;20.91;78.89;101650.38;107347;1241;98356;-67
2022/10/17 10:39:32;;;;;;;20.70;13.90;;;;;;;20.98;78.61;101646.91;107227;1227;138659;-66
2022/10/17 10:41:58;;;;;;;20.50;13.20;;;;;;;21.07;78.16;101647.94;107393;1244;97610;-66
2022/10/17 10:44:27;;;;;;;23.70;13.40;;;;;;;21.13;77.91;101643.89;107223;1237;139856;-66
2022/10/17 10:47:18;;;;;;;20.50;13.50;;;;;;;21.20;77.66;101643.73;107353;1244;97641;-66
2022/10/17 10:49:44;;;;;;;21.00;12.30;;;;;;;21.30;77.15;101639.36;107362;1251;98848;-65
2022/10/17 10:52:18;;;;;;;19.60;13.40;;;;;;;21.38;76.79;101633.14;107051;1251;138992;-66
2022/10/17 10:54:53;;;;;;;17.70;12.40;;;;;;;21.47;76.59;101632.67;107233;1246;97727;-66
2022/10/17 10:57:21;;;;;;;19.50;12.00;;;;;;;21.58;76.26;101633.91;107209;1236;138588;-65
2022/10/17 11:00:03;;;;;;;17.20;12.30;;;;;;;21.69;76.19;101630.12;107435;1228;98274;-66
2022/10/17 11:02:44;;;;;;;21.00;11.00;;;;;;;21.85;75.73;101634.39;107196;1244;138670;-66
2022/10/17 11:05:20;;;;;;;17.60;12.00;;;;;;;22.02;75.55;101635.17;107209;1231;97812;-66
2022/10/17 11:08:02;;;;;;;20.60;11.90;;;;;;;22.12;75.07;101631.64;107236;1233;98167;-65